sensor_id;sensor_type;location;lat;lon;timestamp;temperature;humidity
11239;DHT22;5677;48.488;13.436;2023-07-13T00:02:18;23.40;59.20
11239;DHT22;5677;48.488;13.436;2023-07-13T00:04:45;23.40;59.20
11239;DHT22;5677;48.488;13.436;2023-07-13T00:07:13;23.40;59.20
11239;DHT22;5677;48.488;13.436;2023-07-13T00:09:40;23.40;59.20
11239;DHT22;5677;48.488;13.436;2023-07-13T00:12:26;23.40;59.20
11239;DHT22;5677;48.488;13.436;2023-07-13T00:14:56;23.40;59.20
11239;DHT22;5677;48.488;13.436;2023-07-13T00:17:22;23.40;59.20
11239;DHT22;5677;48.488;13.436;2023-07-13T00:19:49;23.40;59.90
11239;DHT22;5677;48.488;13.436;2023-07-13T00:22:18;23.40;59.30
11239;DHT22;5677;48.488;13.436;2023-07-13T00:24:45;23.40;59.30
11239;DHT22;5677;48.488;13.436;2023-07-13T00:27:12;23.40;59.30
11239;DHT22;5677;48.488;13.436;2023-07-13T00:29:39;23.40;59.30
11239;DHT22;5677;48.488;13.436;2023-07-13T00:32:08;23.40;59.30
11239;DHT22;5677;48.488;13.436;2023-07-13T00:34:36;23.30;59.30
11239;DHT22;5677;48.488;13.436;2023-07-13T00:37:04;23.30;59.40
11239;DHT22;5677;48.488;13.436;2023-07-13T00:39:33;23.30;59.30
11239;DHT22;5677;48.488;13.436;2023-07-13T00:42:00;23.30;59.30
11239;DHT22;5677;48.488;13.436;2023-07-13T00:44:27;23.40;59.30
11239;DHT22;5677;48.488;13.436;2023-07-13T00:46:54;23.30;59.50
11239;DHT22;5677;48.488;13.436;2023-07-13T00:49:23;23.30;59.50
11239;DHT22;5677;48.488;13.436;2023-07-13T00:55:14;23.30;59.50
11239;DHT22;5677;48.488;13.436;2023-07-13T00:57:42;23.30;59.60
11239;DHT22;5677;48.488;13.436;2023-07-13T01:00:10;23.30;59.50
11239;DHT22;5677;48.488;13.436;2023-07-13T01:02:39;23.30;59.60
11239;DHT22;5677;48.488;13.436;2023-07-13T01:05:09;23.30;59.70
11239;DHT22;5677;48.488;13.436;2023-07-13T01:07:36;23.30;59.70
11239;DHT22;5677;48.488;13.436;2023-07-13T01:10:03;23.30;59.70
11239;DHT22;5677;48.488;13.436;2023-07-13T01:12:31;23.30;59.70
11239;DHT22;5677;48.488;13.436;2023-07-13T01:14:58;23.30;59.80
11239;DHT22;5677;48.488;13.436;2023-07-13T01:17:26;23.30;59.70
11239;DHT22;5677;48.488;13.436;2023-07-13T01:19:53;23.30;59.80
11239;DHT22;5677;48.488;13.436;2023-07-13T01:22:22;23.30;59.80
11239;DHT22;5677;48.488;13.436;2023-07-13T01:24:53;23.30;59.80
11239;DHT22;5677;48.488;13.436;2023-07-13T01:27:22;23.30;59.90
11239;DHT22;5677;48.488;13.436;2023-07-13T01:29:51;23.30;59.80
11239;DHT22;5677;48.488;13.436;2023-07-13T01:32:21;23.30;59.80
11239;DHT22;5677;48.488;13.436;2023-07-13T01:34:49;23.30;59.90
11239;DHT22;5677;48.488;13.436;2023-07-13T01:37:21;23.30;59.90
11239;DHT22;5677;48.488;13.436;2023-07-13T01:39:48;23.30;60.00
11239;DHT22;5677;48.488;13.436;2023-07-13T01:42:15;23.30;60.00
11239;DHT22;5677;48.488;13.436;2023-07-13T01:44:42;23.30;60.10
11239;DHT22;5677;48.488;13.436;2023-07-13T01:47:09;23.30;60.20
11239;DHT22;5677;48.488;13.436;2023-07-13T01:49:36;23.30;60.20
11239;DHT22;5677;48.488;13.436;2023-07-13T01:52:04;23.30;60.20
11239;DHT22;5677;48.488;13.436;2023-07-13T01:54:32;23.30;60.20
11239;DHT22;5677;48.488;13.436;2023-07-13T01:56:59;23.30;60.20
11239;DHT22;5677;48.488;13.436;2023-07-13T01:59:26;23.30;60.30
11239;DHT22;5677;48.488;13.436;2023-07-13T02:01:53;23.30;60.20
11239;DHT22;5677;48.488;13.436;2023-07-13T02:04:20;23.30;60.20
11239;DHT22;5677;48.488;13.436;2023-07-13T02:06:46;23.30;60.40
11239;DHT22;5677;48.488;13.436;2023-07-13T02:09:13;23.30;60.40
11239;DHT22;5677;48.488;13.436;2023-07-13T02:11:41;23.30;60.40
11239;DHT22;5677;48.488;13.436;2023-07-13T02:14:08;23.30;60.40
11239;DHT22;5677;48.488;13.436;2023-07-13T02:16:34;23.30;60.40
11239;DHT22;5677;48.488;13.436;2023-07-13T02:19:01;23.30;60.50
11239;DHT22;5677;48.488;13.436;2023-07-13T02:21:28;23.20;60.40
11239;DHT22;5677;48.488;13.436;2023-07-13T02:23:55;23.30;60.60
11239;DHT22;5677;48.488;13.436;2023-07-13T02:26:23;23.20;60.50
11239;DHT22;5677;48.488;13.436;2023-07-13T02:28:51;23.30;60.70
11239;DHT22;5677;48.488;13.436;2023-07-13T02:34:40;23.30;60.80
11239;DHT22;5677;48.488;13.436;2023-07-13T02:37:07;23.20;60.60
11239;DHT22;5677;48.488;13.436;2023-07-13T02:39:34;23.20;60.70
11239;DHT22;5677;48.488;13.436;2023-07-13T02:42:01;23.20;60.80
11239;DHT22;5677;48.488;13.436;2023-07-13T02:44:30;23.20;60.70
11239;DHT22;5677;48.488;13.436;2023-07-13T02:46:57;23.30;61.00
11239;DHT22;5677;48.488;13.436;2023-07-13T02:49:23;23.20;60.90
11239;DHT22;5677;48.488;13.436;2023-07-13T02:51:50;23.30;61.10
11239;DHT22;5677;48.488;13.436;2023-07-13T02:54:17;23.20;61.10
11239;DHT22;5677;48.488;13.436;2023-07-13T02:56:44;23.30;61.10
11239;DHT22;5677;48.488;13.436;2023-07-13T02:59:12;23.20;61.80
11239;DHT22;5677;48.488;13.436;2023-07-13T03:01:40;23.20;61.10
11239;DHT22;5677;48.488;13.436;2023-07-13T03:04:06;23.20;61.10
11239;DHT22;5677;48.488;13.436;2023-07-13T03:06:34;23.20;61.20
11239;DHT22;5677;48.488;13.436;2023-07-13T03:09:00;23.20;61.20
11239;DHT22;5677;48.488;13.436;2023-07-13T03:11:27;23.20;61.20
11239;DHT22;5677;48.488;13.436;2023-07-13T03:13:55;23.20;61.20
11239;DHT22;5677;48.488;13.436;2023-07-13T03:16:22;23.20;61.20
11239;DHT22;5677;48.488;13.436;2023-07-13T03:18:50;23.20;61.30
11239;DHT22;5677;48.488;13.436;2023-07-13T03:21:16;23.20;61.30
11239;DHT22;5677;48.488;13.436;2023-07-13T03:23:43;23.20;61.30
11239;DHT22;5677;48.488;13.436;2023-07-13T03:26:12;23.20;61.30
11239;DHT22;5677;48.488;13.436;2023-07-13T03:28:39;23.20;61.40
11239;DHT22;5677;48.488;13.436;2023-07-13T03:34:29;23.20;61.60
11239;DHT22;5677;48.488;13.436;2023-07-13T03:36:56;23.20;61.60
11239;DHT22;5677;48.488;13.436;2023-07-13T03:39:23;23.20;61.60
11239;DHT22;5677;48.488;13.436;2023-07-13T03:41:50;23.20;61.60
11239;DHT22;5677;48.488;13.436;2023-07-13T03:44:17;23.20;61.80
11239;DHT22;5677;48.488;13.436;2023-07-13T03:46:44;23.20;62.00
11239;DHT22;5677;48.488;13.436;2023-07-13T03:49:11;23.20;62.00
11239;DHT22;5677;48.488;13.436;2023-07-13T03:51:39;23.20;62.10
11239;DHT22;5677;48.488;13.436;2023-07-13T03:54:06;23.20;62.30
11239;DHT22;5677;48.488;13.436;2023-07-13T03:56:33;23.20;62.50
11239;DHT22;5677;48.488;13.436;2023-07-13T03:58:59;23.20;62.90
11239;DHT22;5677;48.488;13.436;2023-07-13T04:01:27;23.20;63.30
11239;DHT22;5677;48.488;13.436;2023-07-13T04:03:54;23.20;63.60
11239;DHT22;5677;48.488;13.436;2023-07-13T04:06:22;23.20;64.00
11239;DHT22;5677;48.488;13.436;2023-07-13T04:08:53;23.10;65.60
11239;DHT22;5677;48.488;13.436;2023-07-13T04:14:42;23.10;55.10
11239;DHT22;5677;48.488;13.436;2023-07-13T04:17:08;23.20;55.60
11239;DHT22;5677;48.488;13.436;2023-07-13T04:19:35;23.10;55.60
11239;DHT22;5677;48.488;13.436;2023-07-13T04:22:02;23.10;55.70
11239;DHT22;5677;48.488;13.436;2023-07-13T04:24:30;23.10;55.70
11239;DHT22;5677;48.488;13.436;2023-07-13T04:26:57;23.10;55.60
11239;DHT22;5677;48.488;13.436;2023-07-13T04:29:25;23.10;55.70
11239;DHT22;5677;48.488;13.436;2023-07-13T04:31:50;23.10;55.70
11239;DHT22;5677;48.488;13.436;2023-07-13T04:34:17;23.20;55.70
11239;DHT22;5677;48.488;13.436;2023-07-13T04:36:44;23.20;55.60
11239;DHT22;5677;48.488;13.436;2023-07-13T04:39:10;23.20;55.70
11239;DHT22;5677;48.488;13.436;2023-07-13T04:41:39;23.20;55.70
11239;DHT22;5677;48.488;13.436;2023-07-13T04:44:05;23.20;55.70
11239;DHT22;5677;48.488;13.436;2023-07-13T04:46:32;23.10;55.70
11239;DHT22;5677;48.488;13.436;2023-07-13T04:48:59;23.10;55.60
11239;DHT22;5677;48.488;13.436;2023-07-13T04:51:26;23.20;55.60
11239;DHT22;5677;48.488;13.436;2023-07-13T04:53:53;23.20;55.70
11239;DHT22;5677;48.488;13.436;2023-07-13T04:56:20;23.10;55.70
11239;DHT22;5677;48.488;13.436;2023-07-13T04:58:48;23.20;55.70
11239;DHT22;5677;48.488;13.436;2023-07-13T05:01:15;23.10;55.70
11239;DHT22;5677;48.488;13.436;2023-07-13T05:03:41;23.10;55.60
11239;DHT22;5677;48.488;13.436;2023-07-13T05:06:09;23.10;55.60
11239;DHT22;5677;48.488;13.436;2023-07-13T05:08:36;23.10;55.60
11239;DHT22;5677;48.488;13.436;2023-07-13T05:11:04;23.10;55.60
11239;DHT22;5677;48.488;13.436;2023-07-13T05:13:31;23.10;55.60
11239;DHT22;5677;48.488;13.436;2023-07-13T05:16:01;23.10;55.60
11239;DHT22;5677;48.488;13.436;2023-07-13T05:18:29;23.10;55.70
11239;DHT22;5677;48.488;13.436;2023-07-13T05:20:58;23.10;55.70
11239;DHT22;5677;48.488;13.436;2023-07-13T05:23:25;23.10;55.60
11239;DHT22;5677;48.488;13.436;2023-07-13T05:25:52;23.10;55.70
11239;DHT22;5677;48.488;13.436;2023-07-13T05:28:19;23.10;55.70
11239;DHT22;5677;48.488;13.436;2023-07-13T05:30:46;23.10;55.60
11239;DHT22;5677;48.488;13.436;2023-07-13T05:33:14;23.20;55.60
11239;DHT22;5677;48.488;13.436;2023-07-13T05:35:40;23.10;55.70
11239;DHT22;5677;48.488;13.436;2023-07-13T05:38:07;23.10;55.70
11239;DHT22;5677;48.488;13.436;2023-07-13T05:40:34;23.10;55.70
11239;DHT22;5677;48.488;13.436;2023-07-13T05:43:01;23.10;55.70
11239;DHT22;5677;48.488;13.436;2023-07-13T05:45:27;23.10;55.60
11239;DHT22;5677;48.488;13.436;2023-07-13T05:47:54;23.10;55.70
11239;DHT22;5677;48.488;13.436;2023-07-13T05:50:22;23.10;55.60
11239;DHT22;5677;48.488;13.436;2023-07-13T05:52:49;23.20;55.60
11239;DHT22;5677;48.488;13.436;2023-07-13T05:55:16;23.10;55.60
11239;DHT22;5677;48.488;13.436;2023-07-13T05:57:43;23.10;55.60
11239;DHT22;5677;48.488;13.436;2023-07-13T06:00:11;23.10;55.60
11239;DHT22;5677;48.488;13.436;2023-07-13T06:02:37;23.10;55.60
11239;DHT22;5677;48.488;13.436;2023-07-13T06:05:05;23.10;55.60
11239;DHT22;5677;48.488;13.436;2023-07-13T06:07:33;23.10;55.60
11239;DHT22;5677;48.488;13.436;2023-07-13T06:10:00;23.20;55.60
11239;DHT22;5677;48.488;13.436;2023-07-13T06:12:27;23.10;55.60
11239;DHT22;5677;48.488;13.436;2023-07-13T06:14:53;23.10;55.60
11239;DHT22;5677;48.488;13.436;2023-07-13T06:17:20;23.10;55.60
11239;DHT22;5677;48.488;13.436;2023-07-13T06:19:47;23.10;55.60
11239;DHT22;5677;48.488;13.436;2023-07-13T06:22:13;23.10;55.60
11239;DHT22;5677;48.488;13.436;2023-07-13T06:24:41;23.10;55.60
11239;DHT22;5677;48.488;13.436;2023-07-13T06:27:08;23.10;55.60
11239;DHT22;5677;48.488;13.436;2023-07-13T06:29:35;23.10;55.70
11239;DHT22;5677;48.488;13.436;2023-07-13T06:32:02;23.10;55.60
11239;DHT22;5677;48.488;13.436;2023-07-13T06:34:28;23.10;55.60
11239;DHT22;5677;48.488;13.436;2023-07-13T06:36:55;23.10;55.60
11239;DHT22;5677;48.488;13.436;2023-07-13T06:39:22;23.10;55.60
11239;DHT22;5677;48.488;13.436;2023-07-13T06:45:12;23.10;55.60
11239;DHT22;5677;48.488;13.436;2023-07-13T06:47:38;23.10;55.60
11239;DHT22;5677;48.488;13.436;2023-07-13T06:50:06;23.10;55.60
11239;DHT22;5677;48.488;13.436;2023-07-13T06:52:33;23.20;55.60
11239;DHT22;5677;48.488;13.436;2023-07-13T06:54:59;23.10;55.60
11239;DHT22;5677;48.488;13.436;2023-07-13T06:57:26;23.10;55.60
11239;DHT22;5677;48.488;13.436;2023-07-13T06:59:53;23.20;55.60
11239;DHT22;5677;48.488;13.436;2023-07-13T07:02:21;23.20;55.60
11239;DHT22;5677;48.488;13.436;2023-07-13T07:04:48;23.20;55.60
11239;DHT22;5677;48.488;13.436;2023-07-13T07:07:15;23.20;55.50
11239;DHT22;5677;48.488;13.436;2023-07-13T07:09:42;23.20;55.50
11239;DHT22;5677;48.488;13.436;2023-07-13T07:12:09;23.20;55.50
11239;DHT22;5677;48.488;13.436;2023-07-13T07:14:35;23.20;55.50
11239;DHT22;5677;48.488;13.436;2023-07-13T07:17:02;23.20;55.50
11239;DHT22;5677;48.488;13.436;2023-07-13T07:19:31;23.20;55.50
11239;DHT22;5677;48.488;13.436;2023-07-13T07:21:57;23.20;55.50
11239;DHT22;5677;48.488;13.436;2023-07-13T07:24:24;23.20;55.50
11239;DHT22;5677;48.488;13.436;2023-07-13T07:26:51;23.20;55.40
11239;DHT22;5677;48.488;13.436;2023-07-13T07:29:18;23.20;55.40
11239;DHT22;5677;48.488;13.436;2023-07-13T07:31:44;23.20;55.40
11239;DHT22;5677;48.488;13.436;2023-07-13T07:34:11;23.20;55.40
11239;DHT22;5677;48.488;13.436;2023-07-13T07:36:39;23.30;55.40
11239;DHT22;5677;48.488;13.436;2023-07-13T07:39:06;23.30;55.40
11239;DHT22;5677;48.488;13.436;2023-07-13T07:41:32;23.30;55.40
11239;DHT22;5677;48.488;13.436;2023-07-13T07:43:59;23.30;55.40
11239;DHT22;5677;48.488;13.436;2023-07-13T07:46:26;23.30;55.40
11239;DHT22;5677;48.488;13.436;2023-07-13T07:48:53;23.30;55.40
11239;DHT22;5677;48.488;13.436;2023-07-13T07:51:20;23.30;55.40
11239;DHT22;5677;48.488;13.436;2023-07-13T07:53:48;23.30;55.40
11239;DHT22;5677;48.488;13.436;2023-07-13T07:56:15;23.30;55.40
11239;DHT22;5677;48.488;13.436;2023-07-13T07:58:42;23.30;55.40
11239;DHT22;5677;48.488;13.436;2023-07-13T08:01:10;23.30;55.30
11239;DHT22;5677;48.488;13.436;2023-07-13T08:03:36;23.30;55.30
11239;DHT22;5677;48.488;13.436;2023-07-13T08:06:03;23.30;55.40
11239;DHT22;5677;48.488;13.436;2023-07-13T08:08:30;23.30;55.30
11239;DHT22;5677;48.488;13.436;2023-07-13T08:11:02;23.30;55.40
11239;DHT22;5677;48.488;13.436;2023-07-13T08:13:29;23.30;55.40
11239;DHT22;5677;48.488;13.436;2023-07-13T08:15:55;23.30;55.30
11239;DHT22;5677;48.488;13.436;2023-07-13T08:18:22;23.30;55.30
11239;DHT22;5677;48.488;13.436;2023-07-13T08:20:49;23.30;55.30
11239;DHT22;5677;48.488;13.436;2023-07-13T08:23:16;23.30;55.30
11239;DHT22;5677;48.488;13.436;2023-07-13T08:25:43;23.30;55.30
11239;DHT22;5677;48.488;13.436;2023-07-13T08:28:21;23.30;55.30
11239;DHT22;5677;48.488;13.436;2023-07-13T08:30:48;23.30;55.30
11239;DHT22;5677;48.488;13.436;2023-07-13T08:33:15;23.30;55.30
11239;DHT22;5677;48.488;13.436;2023-07-13T08:35:41;23.30;55.30
11239;DHT22;5677;48.488;13.436;2023-07-13T08:38:08;23.30;55.30
11239;DHT22;5677;48.488;13.436;2023-07-13T08:40:35;23.40;55.30
11239;DHT22;5677;48.488;13.436;2023-07-13T08:43:02;23.30;55.30
11239;DHT22;5677;48.488;13.436;2023-07-13T08:45:40;23.30;55.30
11239;DHT22;5677;48.488;13.436;2023-07-13T08:48:13;23.30;55.30
11239;DHT22;5677;48.488;13.436;2023-07-13T08:50:48;23.30;55.30
11239;DHT22;5677;48.488;13.436;2023-07-13T08:53:16;23.30;55.30
11239;DHT22;5677;48.488;13.436;2023-07-13T08:55:43;23.30;55.30
11239;DHT22;5677;48.488;13.436;2023-07-13T08:58:12;23.30;55.30
11239;DHT22;5677;48.488;13.436;2023-07-13T09:00:46;23.30;55.30
11239;DHT22;5677;48.488;13.436;2023-07-13T09:03:20;23.30;55.30
11239;DHT22;5677;48.488;13.436;2023-07-13T09:05:50;23.30;55.30
11239;DHT22;5677;48.488;13.436;2023-07-13T09:08:37;23.30;55.30
11239;DHT22;5677;48.488;13.436;2023-07-13T09:11:11;23.30;55.30
11239;DHT22;5677;48.488;13.436;2023-07-13T09:13:46;23.30;55.20
11239;DHT22;5677;48.488;13.436;2023-07-13T09:16:17;23.30;55.20
11239;DHT22;5677;48.488;13.436;2023-07-13T09:18:47;23.30;55.30
11239;DHT22;5677;48.488;13.436;2023-07-13T09:21:17;23.30;55.20
11239;DHT22;5677;48.488;13.436;2023-07-13T09:23:44;23.30;55.20
11239;DHT22;5677;48.488;13.436;2023-07-13T09:26:15;23.30;55.20
11239;DHT22;5677;48.488;13.436;2023-07-13T09:28:45;23.30;55.20
11239;DHT22;5677;48.488;13.436;2023-07-13T09:34:35;23.30;55.30
11239;DHT22;5677;48.488;13.436;2023-07-13T09:37:02;23.30;55.20
11239;DHT22;5677;48.488;13.436;2023-07-13T09:39:33;23.30;55.20
11239;DHT22;5677;48.488;13.436;2023-07-13T09:42:07;23.30;55.20
11239;DHT22;5677;48.488;13.436;2023-07-13T09:44:39;23.30;55.20
11239;DHT22;5677;48.488;13.436;2023-07-13T09:47:16;23.40;55.20
11239;DHT22;5677;48.488;13.436;2023-07-13T09:49:44;23.30;55.20
11239;DHT22;5677;48.488;13.436;2023-07-13T09:52:14;23.40;55.20
11239;DHT22;5677;48.488;13.436;2023-07-13T09:54:45;23.40;55.20
11239;DHT22;5677;48.488;13.436;2023-07-13T09:57:16;23.40;55.20
11239;DHT22;5677;48.488;13.436;2023-07-13T09:59:44;23.30;55.20
11239;DHT22;5677;48.488;13.436;2023-07-13T10:02:27;23.30;55.20
11239;DHT22;5677;48.488;13.436;2023-07-13T10:05:01;23.40;55.20
11239;DHT22;5677;48.488;13.436;2023-07-13T10:07:29;23.30;55.20
11239;DHT22;5677;48.488;13.436;2023-07-13T10:09:57;23.30;55.20
11239;DHT22;5677;48.488;13.436;2023-07-13T10:12:26;23.30;55.20
11239;DHT22;5677;48.488;13.436;2023-07-13T10:14:55;23.30;55.20
11239;DHT22;5677;48.488;13.436;2023-07-13T10:17:27;23.30;55.20
11239;DHT22;5677;48.488;13.436;2023-07-13T10:20:01;23.30;55.20
11239;DHT22;5677;48.488;13.436;2023-07-13T10:22:37;23.30;55.20
11239;DHT22;5677;48.488;13.436;2023-07-13T10:25:15;23.40;55.20
11239;DHT22;5677;48.488;13.436;2023-07-13T10:27:43;23.40;55.10
11239;DHT22;5677;48.488;13.436;2023-07-13T10:30:15;23.30;55.20
11239;DHT22;5677;48.488;13.436;2023-07-13T10:32:43;23.40;55.20
11239;DHT22;5677;48.488;13.436;2023-07-13T10:35:14;23.40;55.10
11239;DHT22;5677;48.488;13.436;2023-07-13T10:37:49;23.30;55.20
11239;DHT22;5677;48.488;13.436;2023-07-13T10:40:22;23.40;55.10
11239;DHT22;5677;48.488;13.436;2023-07-13T10:42:51;23.40;55.20
11239;DHT22;5677;48.488;13.436;2023-07-13T10:45:21;23.40;55.10
11239;DHT22;5677;48.488;13.436;2023-07-13T10:47:49;23.30;55.20
11239;DHT22;5677;48.488;13.436;2023-07-13T10:50:22;23.40;55.10
11239;DHT22;5677;48.488;13.436;2023-07-13T10:52:51;23.40;55.20
11239;DHT22;5677;48.488;13.436;2023-07-13T10:55:33;23.40;55.20
11239;DHT22;5677;48.488;13.436;2023-07-13T10:58:02;23.40;55.10
11239;DHT22;5677;48.488;13.436;2023-07-13T11:00:44;23.30;55.10
11239;DHT22;5677;48.488;13.436;2023-07-13T11:03:14;23.40;55.10
11239;DHT22;5677;48.488;13.436;2023-07-13T11:05:48;23.40;55.10
11239;DHT22;5677;48.488;13.436;2023-07-13T11:08:20;23.40;55.10
11239;DHT22;5677;48.488;13.436;2023-07-13T11:10:51;23.40;55.70
11239;DHT22;5677;48.488;13.436;2023-07-13T11:13:56;23.40;55.10
11239;DHT22;5677;48.488;13.436;2023-07-13T11:16:41;23.40;55.10
11239;DHT22;5677;48.488;13.436;2023-07-13T11:19:28;23.40;55.10
11239;DHT22;5677;48.488;13.436;2023-07-13T11:22:13;23.40;55.10
11239;DHT22;5677;48.488;13.436;2023-07-13T11:25:01;23.40;55.10
11239;DHT22;5677;48.488;13.436;2023-07-13T11:27:36;23.40;55.20
11239;DHT22;5677;48.488;13.436;2023-07-13T11:30:20;23.30;55.20
11239;DHT22;5677;48.488;13.436;2023-07-13T11:32:51;23.40;55.20
11239;DHT22;5677;48.488;13.436;2023-07-13T11:35:22;23.30;55.10
11239;DHT22;5677;48.488;13.436;2023-07-13T11:37:51;23.30;55.10
11239;DHT22;5677;48.488;13.436;2023-07-13T11:40:18;23.30;55.20
11239;DHT22;5677;48.488;13.436;2023-07-13T11:42:45;23.40;55.10
11239;DHT22;5677;48.488;13.436;2023-07-13T11:45:20;23.40;55.10
11239;DHT22;5677;48.488;13.436;2023-07-13T11:47:49;23.30;55.20
11239;DHT22;5677;48.488;13.436;2023-07-13T11:50:20;23.30;55.10
11239;DHT22;5677;48.488;13.436;2023-07-13T11:52:48;23.30;55.20
11239;DHT22;5677;48.488;13.436;2023-07-13T11:55:19;23.30;55.10
11239;DHT22;5677;48.488;13.436;2023-07-13T11:57:50;23.30;55.10
11239;DHT22;5677;48.488;13.436;2023-07-13T12:00:22;23.30;55.10
11239;DHT22;5677;48.488;13.436;2023-07-13T12:02:51;23.30;55.10
11239;DHT22;5677;48.488;13.436;2023-07-13T12:05:20;23.30;55.10
11239;DHT22;5677;48.488;13.436;2023-07-13T12:07:48;23.30;55.10
11239;DHT22;5677;48.488;13.436;2023-07-13T12:10:20;23.30;55.10
11239;DHT22;5677;48.488;13.436;2023-07-13T12:12:51;23.30;55.10
11239;DHT22;5677;48.488;13.436;2023-07-13T12:15:18;23.40;55.10
11239;DHT22;5677;48.488;13.436;2023-07-13T12:17:46;23.30;55.10
11239;DHT22;5677;48.488;13.436;2023-07-13T12:20:21;23.40;55.10
11239;DHT22;5677;48.488;13.436;2023-07-13T12:22:49;23.30;55.10
11239;DHT22;5677;48.488;13.436;2023-07-13T12:25:19;23.40;55.10
11239;DHT22;5677;48.488;13.436;2023-07-13T12:27:47;23.40;55.00
11239;DHT22;5677;48.488;13.436;2023-07-13T12:30:25;23.40;54.90
11239;DHT22;5677;48.488;13.436;2023-07-13T12:33:00;23.50;55.00
11239;DHT22;5677;48.488;13.436;2023-07-13T12:35:29;23.40;54.90
11239;DHT22;5677;48.488;13.436;2023-07-13T12:38:00;23.50;55.00
11239;DHT22;5677;48.488;13.436;2023-07-13T12:40:33;23.50;54.90
11239;DHT22;5677;48.488;13.436;2023-07-13T12:43:03;23.40;54.80
11239;DHT22;5677;48.488;13.436;2023-07-13T12:45:32;23.50;54.90
11239;DHT22;5677;48.488;13.436;2023-07-13T12:48:04;23.50;54.80
11239;DHT22;5677;48.488;13.436;2023-07-13T12:50:37;23.50;54.90
11239;DHT22;5677;48.488;13.436;2023-07-13T12:53:05;23.50;54.80
11239;DHT22;5677;48.488;13.436;2023-07-13T12:55:42;23.50;54.80
11239;DHT22;5677;48.488;13.436;2023-07-13T12:58:17;23.50;54.90
11239;DHT22;5677;48.488;13.436;2023-07-13T13:00:49;23.50;54.80
11239;DHT22;5677;48.488;13.436;2023-07-13T13:03:24;23.50;54.80
11239;DHT22;5677;48.488;13.436;2023-07-13T13:06:00;23.50;54.80
11239;DHT22;5677;48.488;13.436;2023-07-13T13:08:28;23.50;54.80
11239;DHT22;5677;48.488;13.436;2023-07-13T13:10:56;23.60;54.80
11239;DHT22;5677;48.488;13.436;2023-07-13T13:13:23;23.60;54.80
11239;DHT22;5677;48.488;13.436;2023-07-13T13:15:51;23.60;54.70
11239;DHT22;5677;48.488;13.436;2023-07-13T13:18:18;23.60;54.80
11239;DHT22;5677;48.488;13.436;2023-07-13T13:20:46;23.60;54.70
11239;DHT22;5677;48.488;13.436;2023-07-13T13:23:13;23.60;54.80
11239;DHT22;5677;48.488;13.436;2023-07-13T13:25:43;23.60;54.80
11239;DHT22;5677;48.488;13.436;2023-07-13T13:28:15;23.60;54.80
11239;DHT22;5677;48.488;13.436;2023-07-13T13:30:43;23.60;54.80
11239;DHT22;5677;48.488;13.436;2023-07-13T13:33:12;23.60;54.70
11239;DHT22;5677;48.488;13.436;2023-07-13T13:35:40;23.60;54.70
11239;DHT22;5677;48.488;13.436;2023-07-13T13:38:13;23.60;54.70
11239;DHT22;5677;48.488;13.436;2023-07-13T13:40:41;23.60;54.70
11239;DHT22;5677;48.488;13.436;2023-07-13T13:43:16;23.60;54.70
11239;DHT22;5677;48.488;13.436;2023-07-13T13:45:43;23.60;54.70
11239;DHT22;5677;48.488;13.436;2023-07-13T13:48:15;23.60;54.70
11239;DHT22;5677;48.488;13.436;2023-07-13T13:50:42;23.60;54.60
11239;DHT22;5677;48.488;13.436;2023-07-13T13:53:11;23.60;54.60
11239;DHT22;5677;48.488;13.436;2023-07-13T13:55:39;23.60;54.60
11239;DHT22;5677;48.488;13.436;2023-07-13T13:58:07;23.60;54.60
11239;DHT22;5677;48.488;13.436;2023-07-13T14:00:37;23.70;54.80
11239;DHT22;5677;48.488;13.436;2023-07-13T14:03:04;23.60;54.70
11239;DHT22;5677;48.488;13.436;2023-07-13T14:05:32;23.60;54.60
11239;DHT22;5677;48.488;13.436;2023-07-13T14:07:59;23.70;54.70
11239;DHT22;5677;48.488;13.436;2023-07-13T14:10:26;23.70;54.70
11239;DHT22;5677;48.488;13.436;2023-07-13T14:12:55;23.60;54.70
11239;DHT22;5677;48.488;13.436;2023-07-13T14:15:24;23.70;54.70
11239;DHT22;5677;48.488;13.436;2023-07-13T14:17:52;23.70;54.80
11239;DHT22;5677;48.488;13.436;2023-07-13T14:20:21;23.60;54.70
11239;DHT22;5677;48.488;13.436;2023-07-13T14:22:49;23.60;54.70
11239;DHT22;5677;48.488;13.436;2023-07-13T14:25:17;23.70;54.70
11239;DHT22;5677;48.488;13.436;2023-07-13T14:27:45;23.60;54.60
11239;DHT22;5677;48.488;13.436;2023-07-13T14:30:14;23.70;54.80
11239;DHT22;5677;48.488;13.436;2023-07-13T14:32:41;23.60;54.70
11239;DHT22;5677;48.488;13.436;2023-07-13T14:35:10;23.60;54.70
11239;DHT22;5677;48.488;13.436;2023-07-13T14:37:38;23.60;54.70
11239;DHT22;5677;48.488;13.436;2023-07-13T14:40:13;23.70;54.80
11239;DHT22;5677;48.488;13.436;2023-07-13T14:42:39;23.60;54.70
11239;DHT22;5677;48.488;13.436;2023-07-13T14:45:12;23.60;54.70
11239;DHT22;5677;48.488;13.436;2023-07-13T14:47:39;23.60;54.70
11239;DHT22;5677;48.488;13.436;2023-07-13T14:50:14;23.60;54.70
11239;DHT22;5677;48.488;13.436;2023-07-13T14:52:42;23.60;55.40
11239;DHT22;5677;48.488;13.436;2023-07-13T14:55:11;23.70;54.80
11239;DHT22;5677;48.488;13.436;2023-07-13T14:57:38;23.60;54.70
11239;DHT22;5677;48.488;13.436;2023-07-13T15:00:07;23.60;54.70
11239;DHT22;5677;48.488;13.436;2023-07-13T15:02:39;23.60;54.70
11239;DHT22;5677;48.488;13.436;2023-07-13T15:05:14;23.60;54.70
11239;DHT22;5677;48.488;13.436;2023-07-13T15:07:42;23.60;54.60
11239;DHT22;5677;48.488;13.436;2023-07-13T15:10:14;23.60;54.60
11239;DHT22;5677;48.488;13.436;2023-07-13T15:12:41;23.60;55.30
11239;DHT22;5677;48.488;13.436;2023-07-13T15:15:08;23.60;54.60
11239;DHT22;5677;48.488;13.436;2023-07-13T15:17:38;23.70;54.70
11239;DHT22;5677;48.488;13.436;2023-07-13T15:20:11;23.70;54.70
11239;DHT22;5677;48.488;13.436;2023-07-13T15:22:43;23.70;54.70
11239;DHT22;5677;48.488;13.436;2023-07-13T15:25:16;23.60;54.60
11239;DHT22;5677;48.488;13.436;2023-07-13T15:27:43;23.60;54.60
11239;DHT22;5677;48.488;13.436;2023-07-13T15:30:11;23.70;54.70
11239;DHT22;5677;48.488;13.436;2023-07-13T15:32:38;23.60;54.60
11239;DHT22;5677;48.488;13.436;2023-07-13T15:35:13;23.70;54.70
11239;DHT22;5677;48.488;13.436;2023-07-13T15:37:42;23.60;54.70
11239;DHT22;5677;48.488;13.436;2023-07-13T15:40:10;23.60;54.70
11239;DHT22;5677;48.488;13.436;2023-07-13T15:42:38;23.60;54.70
11239;DHT22;5677;48.488;13.436;2023-07-13T15:45:15;23.60;54.70
11239;DHT22;5677;48.488;13.436;2023-07-13T15:47:42;23.60;54.70
11239;DHT22;5677;48.488;13.436;2023-07-13T15:50:12;23.60;54.70
11239;DHT22;5677;48.488;13.436;2023-07-13T15:52:40;23.60;54.70
11239;DHT22;5677;48.488;13.436;2023-07-13T15:55:11;23.60;54.70
11239;DHT22;5677;48.488;13.436;2023-07-13T15:57:46;23.60;54.70
11239;DHT22;5677;48.488;13.436;2023-07-13T16:00:16;23.60;54.70
11239;DHT22;5677;48.488;13.436;2023-07-13T16:02:45;23.60;54.70